createdAt,value
2018-03-29T00:01:57.555Z,3.92
2018-03-29T00:04:25.055Z,3.78
2018-03-29T00:06:52.795Z,3.53
2018-03-29T00:09:20.272Z,3.67
2018-03-29T00:11:47.704Z,3.67
2018-03-29T00:14:15.120Z,4.40
2018-03-29T00:16:42.635Z,3.87
2018-03-29T00:19:10.079Z,3.25
2018-03-29T00:21:37.515Z,3.83
2018-03-29T00:24:05.003Z,4.55
2018-03-29T00:26:32.452Z,4.12
2018-03-29T00:28:59.871Z,4.40
2018-03-29T00:31:27.573Z,4.82
2018-03-29T00:33:55.127Z,4.62
2018-03-29T00:36:22.583Z,4.30
2018-03-29T00:38:50.045Z,3.80
2018-03-29T00:41:17.463Z,3.87
2018-03-29T00:43:44.896Z,3.95
2018-03-29T00:46:12.305Z,3.93
2018-03-29T00:48:39.779Z,4.03
2018-03-29T00:51:07.224Z,4.27
2018-03-29T00:53:47.409Z,4.57
2018-03-29T00:56:15.004Z,3.62
2018-03-29T00:58:42.507Z,3.90
2018-03-29T01:01:09.931Z,3.47
2018-03-29T01:03:37.460Z,3.75
2018-03-29T01:06:04.966Z,3.87
2018-03-29T01:08:33.194Z,4.37
2018-03-29T01:11:01.379Z,4.07
2018-03-29T01:13:28.818Z,3.60
2018-03-29T01:15:56.247Z,3.75
2018-03-29T01:18:23.677Z,4.30
2018-03-29T01:20:51.246Z,3.30
2018-03-29T01:23:18.996Z,3.70
2018-03-29T01:25:46.450Z,3.58
2018-03-29T01:28:13.882Z,4.60
2018-03-29T01:30:41.294Z,3.97
2018-03-29T01:33:08.829Z,4.25
2018-03-29T01:35:36.284Z,3.67
2018-03-29T01:38:04.471Z,3.53
2018-03-29T01:40:32.156Z,3.90
2018-03-29T01:42:59.574Z,4.40
2018-03-29T01:45:26.998Z,4.07
2018-03-29T01:47:54.488Z,3.95
2018-03-29T01:50:21.920Z,4.60
2018-03-29T01:52:49.340Z,4.00
2018-03-29T01:55:16.775Z,4.37
2018-03-29T01:57:44.302Z,4.22
2018-03-29T02:00:12.692Z,4.40
2018-03-29T02:02:40.111Z,4.57
2018-03-29T02:05:07.545Z,4.43
2018-03-29T02:07:35.058Z,4.55
2018-03-29T02:10:02.487Z,4.47
2018-03-29T02:12:29.912Z,4.03
2018-03-29T02:14:58.347Z,4.90
2018-03-29T02:17:25.803Z,4.40
2018-03-29T02:19:53.260Z,4.93
2018-03-29T02:22:20.720Z,4.82
2018-03-29T02:24:48.356Z,5.28
2018-03-29T02:27:15.863Z,4.10
2018-03-29T02:29:43.291Z,4.10
2018-03-29T02:32:10.735Z,4.95
2018-03-29T02:34:38.309Z,4.55
2018-03-29T02:37:05.946Z,4.65
2018-03-29T02:39:33.427Z,5.90
2018-03-29T02:42:00.887Z,4.55
2018-03-29T02:44:28.440Z,4.63
2018-03-29T02:46:56.630Z,4.68
2018-03-29T02:49:24.269Z,5.20
2018-03-29T02:51:51.702Z,4.15
2018-03-29T02:54:19.118Z,4.43
2018-03-29T02:56:47.419Z,3.75
2018-03-29T02:59:15.938Z,4.00
2018-03-29T03:01:43.398Z,4.50
2018-03-29T03:04:10.808Z,4.23
2018-03-29T03:06:38.515Z,4.22
2018-03-29T03:09:06.073Z,4.97
2018-03-29T03:11:33.491Z,4.53
2018-03-29T03:14:00.919Z,4.32
2018-03-29T03:16:28.394Z,4.20
2018-03-29T03:18:55.901Z,4.28
2018-03-29T03:21:23.666Z,3.70
2018-03-29T03:23:51.426Z,4.28
2018-03-29T03:26:18.847Z,4.47
2018-03-29T03:28:46.335Z,5.23
2018-03-29T03:31:13.758Z,4.40
2018-03-29T03:33:41.191Z,5.05
2018-03-29T03:36:08.612Z,5.40
2018-03-29T03:38:36.072Z,5.35
2018-03-29T03:41:03.622Z,5.90
2018-03-29T03:43:31.079Z,5.65
2018-03-29T03:45:58.595Z,6.15
2018-03-29T03:48:26.045Z,5.85
2018-03-29T03:50:53.623Z,5.22
2018-03-29T03:53:21.205Z,6.12
2018-03-29T03:55:48.663Z,5.90
2018-03-29T03:58:16.091Z,6.40
2018-03-29T04:00:43.781Z,6.10
2018-03-29T04:03:11.339Z,6.75
2018-03-29T04:05:38.771Z,5.93
2018-03-29T04:08:06.303Z,6.32
2018-03-29T04:10:33.918Z,6.50
2018-03-29T04:13:01.494Z,5.65
2018-03-29T04:15:28.935Z,5.18
2018-03-29T04:17:56.568Z,6.18
2018-03-29T04:20:24.146Z,6.20
2018-03-29T04:22:51.611Z,6.57
2018-03-29T04:25:19.264Z,6.75
2018-03-29T04:27:46.755Z,6.22
2018-03-29T04:30:15.092Z,6.80
2018-03-29T04:32:42.654Z,6.53
2018-03-29T04:35:10.079Z,6.82
2018-03-29T04:37:37.570Z,7.12
2018-03-29T04:40:05.031Z,7.60
2018-03-29T04:42:32.439Z,7.00
2018-03-29T04:44:59.936Z,6.37
2018-03-29T04:47:27.395Z,7.28
2018-03-29T04:49:54.823Z,7.53
2018-03-29T04:52:22.308Z,7.68
2018-03-29T04:54:49.726Z,6.75
2018-03-29T04:57:17.147Z,6.90
2018-03-29T04:59:45.592Z,7.40
2018-03-29T05:02:13.010Z,7.32
2018-03-29T05:04:40.440Z,7.47
2018-03-29T05:07:07.968Z,8.10
2018-03-29T05:09:35.383Z,7.80
2018-03-29T05:12:02.872Z,7.22
2018-03-29T05:14:30.297Z,7.00
2018-03-29T05:16:57.722Z,7.93
2018-03-29T05:19:25.139Z,7.60
2018-03-29T05:21:52.632Z,8.30
2018-03-29T05:24:20.163Z,6.82
2018-03-29T05:26:49.598Z,6.82
2018-03-29T05:29:17.100Z,7.32
2018-03-29T05:31:44.585Z,7.70
2018-03-29T05:34:12.007Z,8.00
2018-03-29T05:36:39.635Z,7.93
2018-03-29T05:39:07.251Z,6.75
2018-03-29T05:41:34.805Z,7.20
2018-03-29T05:44:02.229Z,8.90
2018-03-29T05:46:29.723Z,8.27
2018-03-29T05:48:57.173Z,7.70
2018-03-29T05:51:24.591Z,9.27
2018-03-29T05:53:52.090Z,8.55
2018-03-29T05:56:19.507Z,8.68
2018-03-29T05:58:46.999Z,9.30
2018-03-29T06:01:14.459Z,7.80
2018-03-29T06:03:41.891Z,9.00
2018-03-29T06:06:09.367Z,9.05
2018-03-29T06:08:36.832Z,10.00
2018-03-29T06:11:04.469Z,8.05
2018-03-29T06:13:31.898Z,8.98
2018-03-29T06:16:03.891Z,9.13
2018-03-29T06:18:32.495Z,9.55
2018-03-29T06:21:00.254Z,9.45
2018-03-29T06:23:27.674Z,9.52
2018-03-29T06:25:55.107Z,10.10
2018-03-29T06:28:22.532Z,8.35
2018-03-29T06:30:50.084Z,10.23
2018-03-29T06:33:17.515Z,10.45
2018-03-29T06:35:44.942Z,10.32
2018-03-29T06:38:12.378Z,10.05
2018-03-29T06:40:39.910Z,9.80
2018-03-29T06:43:07.337Z,10.85
2018-03-29T06:45:34.772Z,10.70
2018-03-29T06:48:02.308Z,10.60
2018-03-29T06:50:30.037Z,10.40
2018-03-29T06:52:57.455Z,9.95
2018-03-29T06:55:24.916Z,10.30
2018-03-29T06:57:52.351Z,11.50
2018-03-29T07:00:19.860Z,9.88
2018-03-29T07:02:47.301Z,10.55
2018-03-29T07:05:14.715Z,11.75
2018-03-29T07:07:42.235Z,10.32
2018-03-29T07:10:09.662Z,9.70
2018-03-29T07:12:37.090Z,10.65
2018-03-29T07:15:04.520Z,10.20
2018-03-29T07:17:31.965Z,9.27
2018-03-29T07:19:59.392Z,10.90
2018-03-29T07:22:26.847Z,10.93
2018-03-29T07:24:54.287Z,9.73
2018-03-29T07:27:22.803Z,9.47
2018-03-29T07:29:50.285Z,10.60
2018-03-29T07:32:17.811Z,9.77
2018-03-29T07:34:45.503Z,10.27
2018-03-29T07:37:12.935Z,10.13
2018-03-29T07:39:40.349Z,10.60
2018-03-29T07:42:07.858Z,10.57
2018-03-29T07:44:35.378Z,8.93
2018-03-29T07:47:03.114Z,9.60
2018-03-29T07:49:30.535Z,8.60
2018-03-29T07:51:57.979Z,10.90
2018-03-29T07:54:25.453Z,10.00
2018-03-29T07:56:52.878Z,9.33
2018-03-29T07:59:20.351Z,8.70
2018-03-29T08:01:47.799Z,9.50
2018-03-29T08:04:15.226Z,9.50
2018-03-29T08:06:42.646Z,8.30
2018-03-29T08:09:10.169Z,9.33
2018-03-29T08:11:37.578Z,8.40
2018-03-29T08:14:05.883Z,8.83
2018-03-29T08:16:33.463Z,9.27
2018-03-29T08:19:00.915Z,9.50
2018-03-29T08:21:28.339Z,8.60
2018-03-29T08:23:55.759Z,8.20
2018-03-29T08:26:23.282Z,7.70
2018-03-29T08:28:50.931Z,8.38
2018-03-29T08:31:18.531Z,7.70
2018-03-29T08:33:46.007Z,8.63
2018-03-29T08:36:13.455Z,8.33
2018-03-29T08:38:41.003Z,8.17
2018-03-29T08:41:08.439Z,8.47
2018-03-29T08:43:36.022Z,8.47
2018-03-29T08:46:03.540Z,9.03
2018-03-29T08:48:31.052Z,7.77
2018-03-29T08:50:58.728Z,8.10
2018-03-29T08:53:26.174Z,6.80
2018-03-29T08:55:53.599Z,7.03
2018-03-29T08:58:21.156Z,8.07
2018-03-29T09:00:48.610Z,7.50
2018-03-29T09:03:16.017Z,7.33
2018-03-29T09:05:43.478Z,7.50
2018-03-29T09:08:10.895Z,6.83
2018-03-29T09:10:38.336Z,6.30
2018-03-29T09:13:05.880Z,6.57
2018-03-29T09:15:33.299Z,4.47
2018-03-29T09:18:00.736Z,4.83
2018-03-29T09:20:28.157Z,4.03
2018-03-29T09:22:55.601Z,4.23
2018-03-29T09:25:23.073Z,4.40
2018-03-29T09:27:50.467Z,4.53
2018-03-29T09:30:18.685Z,4.10
2018-03-29T09:32:46.090Z,3.97
2018-03-29T09:35:13.544Z,4.67
2018-03-29T09:37:40.963Z,4.30
2018-03-29T09:40:08.564Z,4.80
2018-03-29T09:42:36.152Z,5.00
2018-03-29T09:45:03.749Z,4.20
2018-03-29T09:47:31.199Z,5.30
2018-03-29T09:49:58.815Z,4.37
2018-03-29T09:52:26.344Z,4.13
2018-03-29T09:54:54.755Z,3.20
2018-03-29T09:57:24.043Z,3.40
2018-03-29T09:59:51.438Z,2.80
2018-03-29T10:02:18.928Z,2.43
2018-03-29T10:04:51.876Z,3.10
2018-03-29T10:07:24.235Z,3.07
2018-03-29T10:09:52.427Z,2.80
2018-03-29T10:12:19.908Z,2.80
2018-03-29T10:14:47.369Z,3.50
2018-03-29T10:17:15.046Z,3.57
2018-03-29T10:19:42.463Z,4.13
2018-03-29T10:22:09.906Z,3.20
2018-03-29T10:24:37.394Z,4.07
2018-03-29T10:27:05.242Z,3.70
2018-03-29T10:29:32.659Z,3.93
2018-03-29T10:32:00.176Z,3.33
2018-03-29T10:34:27.915Z,3.90
2018-03-29T10:36:55.339Z,3.90
2018-03-29T10:39:22.777Z,3.57
2018-03-29T10:41:50.208Z,3.40
2018-03-29T10:44:17.719Z,3.57
2018-03-29T10:46:45.185Z,3.20
2018-03-29T10:49:12.661Z,3.37
2018-03-29T10:51:40.123Z,3.37
2018-03-29T10:54:07.576Z,3.63
2018-03-29T10:56:34.984Z,3.23
2018-03-29T10:59:02.487Z,3.50
2018-03-29T11:01:29.928Z,3.47
2018-03-29T11:03:57.410Z,3.13
2018-03-29T11:06:25.023Z,3.60
2018-03-29T11:08:52.619Z,2.77
2018-03-29T11:11:20.085Z,3.40
2018-03-29T11:13:47.730Z,2.90
2018-03-29T11:16:15.238Z,3.77
2018-03-29T11:18:42.686Z,2.80
2018-03-29T11:21:10.124Z,3.43
2018-03-29T11:23:37.558Z,3.87
2018-03-29T11:26:05.042Z,3.37
2018-03-29T11:28:32.521Z,3.20
2018-03-29T11:30:59.933Z,2.43
2018-03-29T11:33:27.412Z,2.23
2018-03-29T11:35:54.881Z,2.50
2018-03-29T11:38:22.322Z,2.80
2018-03-29T11:40:49.759Z,2.70
2018-03-29T11:43:17.179Z,2.57
2018-03-29T11:45:44.728Z,2.43
2018-03-29T11:48:12.225Z,2.33
2018-03-29T11:50:39.655Z,2.23
2018-03-29T11:53:07.096Z,2.33
2018-03-29T11:55:34.658Z,2.70
2018-03-29T11:58:02.086Z,2.07
2018-03-29T12:00:29.543Z,2.20
2018-03-29T12:02:57.031Z,2.30
2018-03-29T12:05:24.467Z,2.20
2018-03-29T12:07:52.076Z,2.23
2018-03-29T12:10:19.595Z,2.43
2018-03-29T12:12:47.015Z,2.00
2018-03-29T12:15:14.490Z,2.50
2018-03-29T12:17:41.856Z,2.10
2018-03-29T12:20:10.072Z,2.10
2018-03-29T12:22:37.479Z,2.40
2018-03-29T12:25:05.031Z,2.27
2018-03-29T12:27:32.401Z,2.70
2018-03-29T12:29:59.811Z,2.70
2018-03-29T12:32:28.267Z,2.50
2018-03-29T12:34:55.683Z,2.20
2018-03-29T12:37:23.179Z,2.47
2018-03-29T12:39:50.630Z,2.67
2018-03-29T12:42:18.042Z,2.77
2018-03-29T12:44:45.464Z,2.40
2018-03-29T12:47:12.887Z,2.90
2018-03-29T12:49:40.455Z,2.40
2018-03-29T12:52:07.874Z,2.57
2018-03-29T12:54:46.946Z,2.80
2018-03-29T12:57:26.039Z,2.77
2018-03-29T12:59:54.450Z,3.00
2018-03-29T13:02:22.012Z,3.03
2018-03-29T13:04:49.470Z,2.70
2018-03-29T13:07:17.228Z,3.10
2018-03-29T13:09:44.690Z,3.60
2018-03-29T13:12:12.147Z,2.80
2018-03-29T13:14:39.571Z,2.83
2018-03-29T13:17:06.999Z,2.77
2018-03-29T13:19:35.235Z,3.17
2018-03-29T13:22:02.896Z,2.77
2018-03-29T13:24:30.327Z,2.10
2018-03-29T13:26:57.800Z,2.07
2018-03-29T13:29:25.304Z,1.60
2018-03-29T13:31:53.021Z,2.23
2018-03-29T13:34:20.472Z,2.43
2018-03-29T13:36:48.243Z,2.40
2018-03-29T13:39:15.662Z,1.93
2018-03-29T13:41:43.155Z,2.03
2018-03-29T13:44:10.623Z,2.13
2018-03-29T13:46:38.040Z,2.10
2018-03-29T13:49:05.523Z,3.03
2018-03-29T13:51:33.188Z,2.07
2018-03-29T13:54:00.650Z,2.07
2018-03-29T13:56:28.099Z,1.83
2018-03-29T13:58:55.559Z,2.03
2018-03-29T14:01:23.083Z,1.80
2018-03-29T14:03:50.503Z,2.30
2018-03-29T14:06:17.920Z,1.90
2018-03-29T14:08:45.471Z,2.17
2018-03-29T14:11:12.932Z,1.70
2018-03-29T14:13:40.395Z,2.00
2018-03-29T14:16:07.871Z,1.97
2018-03-29T14:18:35.498Z,2.07
2018-03-29T14:21:03.068Z,2.87
2018-03-29T14:23:30.518Z,2.13
2018-03-29T14:25:57.903Z,1.80
2018-03-29T14:28:25.339Z,2.10
2018-03-29T14:30:52.810Z,2.17
2018-03-29T14:33:20.554Z,1.70
2018-03-29T14:35:48.013Z,1.80
2018-03-29T14:38:15.473Z,1.90
2018-03-29T14:40:42.924Z,1.93
2018-03-29T14:43:10.387Z,1.80
2018-03-29T14:45:37.946Z,1.70
2018-03-29T14:48:05.400Z,1.83
2018-03-29T14:50:32.815Z,1.67
2018-03-29T14:53:00.311Z,1.53
2018-03-29T14:55:27.770Z,1.70
2018-03-29T14:57:55.217Z,1.67
2018-03-29T15:00:22.617Z,1.70
2018-03-29T15:02:50.029Z,2.30
2018-03-29T15:05:17.595Z,2.23
2018-03-29T15:07:45.047Z,1.60
2018-03-29T15:10:12.827Z,1.70
2018-03-29T15:12:40.444Z,2.10
2018-03-29T15:15:08.000Z,2.07
2018-03-29T15:17:35.404Z,1.63
2018-03-29T15:20:02.951Z,1.63
2018-03-29T15:22:30.365Z,2.27
2018-03-29T15:24:57.778Z,2.03
2018-03-29T15:27:25.297Z,2.10
2018-03-29T15:29:52.724Z,1.50
2018-03-29T15:32:20.145Z,1.50
2018-03-29T15:34:47.578Z,2.10
2018-03-29T15:37:15.188Z,2.87
2018-03-29T15:39:42.588Z,1.80
2018-03-29T15:42:10.003Z,1.87
2018-03-29T15:44:37.508Z,2.70
2018-03-29T15:47:04.898Z,1.93
2018-03-29T15:49:32.422Z,2.30
2018-03-29T15:51:59.842Z,2.43
2018-03-29T15:54:27.263Z,2.03
2018-03-29T15:56:54.669Z,2.40
2018-03-29T15:59:22.243Z,3.10
2018-03-29T16:01:49.659Z,3.20
2018-03-29T16:04:17.085Z,2.23
2018-03-29T16:06:44.487Z,2.00
2018-03-29T16:09:12.073Z,2.43
2018-03-29T16:11:39.524Z,2.50
2018-03-29T16:14:06.947Z,1.80
2018-03-29T16:16:34.433Z,2.23
2018-03-29T16:19:01.889Z,2.27
2018-03-29T16:21:29.852Z,2.10
2018-03-29T16:23:57.277Z,2.73
2018-03-29T16:26:25.471Z,2.10
2018-03-29T16:28:53.019Z,1.83
2018-03-29T16:31:20.513Z,2.03
2018-03-29T16:33:48.330Z,1.80
2018-03-29T16:36:16.563Z,1.70
2018-03-29T16:38:44.258Z,2.10
2018-03-29T16:41:11.764Z,2.20
2018-03-29T16:43:39.358Z,2.23
2018-03-29T16:46:06.819Z,2.17
2018-03-29T16:48:34.246Z,2.47
2018-03-29T16:51:01.779Z,2.60
2018-03-29T16:53:30.103Z,2.37
2018-03-29T16:55:57.546Z,2.00
2018-03-29T16:58:25.189Z,2.23
2018-03-29T17:00:53.556Z,2.90
2018-03-29T17:03:21.258Z,2.47
2018-03-29T17:05:49.848Z,2.50
2018-03-29T17:08:17.686Z,2.60
2018-03-29T17:10:45.520Z,2.67
2018-03-29T17:13:12.920Z,2.00
2018-03-29T17:15:40.476Z,2.40
2018-03-29T17:18:08.111Z,2.40
2018-03-29T17:20:35.668Z,2.50
2018-03-29T17:23:03.080Z,2.63
2018-03-29T17:25:31.341Z,2.30
2018-03-29T17:27:58.819Z,2.23
2018-03-29T17:30:27.008Z,2.80
2018-03-29T17:32:54.420Z,2.80
2018-03-29T17:35:21.951Z,3.67
2018-03-29T17:37:49.354Z,3.00
2018-03-29T17:40:16.772Z,2.63
2018-03-29T17:42:44.216Z,3.53
2018-03-29T17:45:11.685Z,2.00
2018-03-29T17:47:39.107Z,2.73
2018-03-29T17:50:06.531Z,2.80
2018-03-29T17:52:33.996Z,2.70
2018-03-29T17:55:02.211Z,3.10
2018-03-29T17:57:29.660Z,3.00
2018-03-29T17:59:57.078Z,3.40
2018-03-29T18:02:24.583Z,3.17
2018-03-29T18:04:52.215Z,3.33
2018-03-29T18:07:19.700Z,4.07
2018-03-29T18:09:47.249Z,4.80
2018-03-29T18:12:14.665Z,4.70
2018-03-29T18:14:42.088Z,4.07
2018-03-29T18:17:10.472Z,3.80
2018-03-29T18:19:37.899Z,3.70
2018-03-29T18:22:05.306Z,3.73
2018-03-29T18:24:33.502Z,3.47
2018-03-29T18:27:00.924Z,3.40
2018-03-29T18:29:28.351Z,3.73
2018-03-29T18:31:55.785Z,4.30
2018-03-29T18:34:23.264Z,4.60
2018-03-29T18:36:50.671Z,4.63
2018-03-29T18:39:18.158Z,4.37
2018-03-29T18:41:45.718Z,5.63
2018-03-29T18:44:13.424Z,6.73
2018-03-29T18:46:40.843Z,5.67
2018-03-29T18:49:08.388Z,5.03
2018-03-29T18:51:35.862Z,4.40
2018-03-29T18:54:03.237Z,4.43
2018-03-29T18:56:31.422Z,4.60
2018-03-29T18:58:59.143Z,4.47
2018-03-29T19:01:26.591Z,4.10
2018-03-29T19:03:54.014Z,4.10
2018-03-29T19:06:21.441Z,4.10
2018-03-29T19:08:48.887Z,5.50
2018-03-29T19:11:16.346Z,7.60
2018-03-29T19:13:43.760Z,4.07
2018-03-29T19:16:11.189Z,6.10
2018-03-29T19:18:39.403Z,4.60
2018-03-29T19:21:06.840Z,4.97
2018-03-29T19:23:34.325Z,4.60
2018-03-29T19:26:01.749Z,5.10
2018-03-29T19:28:29.159Z,4.90
2018-03-29T19:30:56.591Z,4.30
2018-03-29T19:33:24.021Z,4.93
2018-03-29T19:35:51.510Z,6.03
2018-03-29T19:38:18.935Z,5.93
2018-03-29T19:40:46.502Z,5.35
2018-03-29T19:43:13.925Z,6.13
2018-03-29T19:45:41.343Z,6.53
2018-03-29T19:48:08.896Z,6.10
2018-03-29T19:50:36.312Z,5.63
2018-03-29T19:53:03.734Z,8.10
2018-03-29T19:55:32.052Z,7.53
2018-03-29T19:57:59.517Z,6.50
2018-03-29T20:00:26.963Z,5.87
2018-03-29T20:02:54.384Z,5.83
2018-03-29T20:05:21.910Z,5.60
2018-03-29T20:07:49.450Z,5.30
2018-03-29T20:10:16.875Z,5.05
2018-03-29T20:12:44.293Z,5.10
2018-03-29T20:15:11.825Z,3.93
2018-03-29T20:17:39.272Z,4.60
2018-03-29T20:20:06.692Z,4.47
2018-03-29T20:22:34.187Z,3.92
2018-03-29T20:25:01.603Z,4.70
2018-03-29T20:27:29.026Z,4.90
2018-03-29T20:29:56.448Z,4.90
2018-03-29T20:32:23.919Z,5.22
2018-03-29T20:34:51.346Z,6.37
2018-03-29T20:37:18.929Z,5.62
2018-03-29T20:39:46.346Z,7.55
2018-03-29T20:42:13.801Z,6.00
2018-03-29T20:44:41.219Z,5.70
2018-03-29T20:47:08.642Z,6.53
2018-03-29T20:49:36.066Z,5.82
2018-03-29T20:52:04.272Z,5.85
2018-03-29T20:54:31.708Z,4.93
2018-03-29T20:56:59.987Z,5.30
2018-03-29T20:59:27.520Z,5.07
2018-03-29T21:01:55.090Z,5.60
2018-03-29T21:04:22.655Z,5.70
2018-03-29T21:06:50.247Z,6.35
2018-03-29T21:09:17.675Z,4.30
2018-03-29T21:11:45.157Z,5.37
2018-03-29T21:14:12.606Z,5.30
2018-03-29T21:16:40.019Z,5.75
2018-03-29T21:19:07.547Z,5.28
2018-03-29T21:21:34.959Z,5.85
2018-03-29T21:24:02.437Z,5.45
2018-03-29T21:26:29.860Z,5.35
2018-03-29T21:28:57.343Z,6.28
2018-03-29T21:31:24.739Z,8.23
2018-03-29T21:33:52.269Z,9.23
2018-03-29T21:36:19.699Z,8.20
2018-03-29T21:38:47.195Z,7.37
2018-03-29T21:41:14.719Z,6.87
2018-03-29T21:43:42.151Z,5.87
2018-03-29T21:46:09.838Z,5.10
2018-03-29T21:48:37.323Z,5.80
2018-03-29T21:51:04.753Z,5.20
2018-03-29T21:53:32.171Z,7.55
2018-03-29T21:55:59.618Z,8.90
2018-03-29T21:58:27.717Z,7.57
2018-03-29T22:00:56.122Z,6.37
2018-03-29T22:03:23.545Z,6.07
2018-03-29T22:05:50.974Z,7.12
2018-03-29T22:08:18.501Z,6.87
2018-03-29T22:10:45.951Z,6.82
2018-03-29T22:13:13.532Z,6.93
2018-03-29T22:15:40.943Z,6.97
2018-03-29T22:18:08.523Z,7.18
2018-03-29T22:20:35.955Z,6.10
2018-03-29T22:23:03.434Z,5.28
2018-03-29T22:25:30.919Z,5.62
2018-03-29T22:27:58.453Z,5.60
2018-03-29T22:30:25.874Z,5.75
2018-03-29T22:32:53.366Z,5.62
2018-03-29T22:35:20.992Z,5.78
2018-03-29T22:37:48.582Z,6.10
2018-03-29T22:40:16.018Z,5.95
2018-03-29T22:42:43.436Z,5.72
2018-03-29T22:45:10.876Z,6.85
2018-03-29T22:47:38.296Z,7.55
2018-03-29T22:50:05.722Z,8.20
2018-03-29T22:52:34.111Z,8.10
2018-03-29T22:55:01.567Z,6.80
2018-03-29T22:57:29.103Z,6.62
2018-03-29T22:59:56.511Z,6.65
2018-03-29T23:02:23.998Z,8.45
2018-03-29T23:04:51.423Z,6.82
2018-03-29T23:07:18.884Z,6.62
2018-03-29T23:09:46.336Z,5.87
2018-03-29T23:12:13.931Z,6.12
2018-03-29T23:14:41.653Z,6.80
2018-03-29T23:17:09.083Z,5.28
2018-03-29T23:19:36.495Z,7.25
2018-03-29T23:22:03.926Z,8.07
2018-03-29T23:24:31.372Z,7.78
2018-03-29T23:26:58.880Z,8.60
2018-03-29T23:29:26.387Z,8.18
2018-03-29T23:31:53.826Z,6.75
2018-03-29T23:34:21.239Z,6.55
2018-03-29T23:36:49.641Z,8.48
2018-03-29T23:39:17.139Z,7.57
2018-03-29T23:41:44.572Z,7.15
2018-03-29T23:44:11.995Z,7.80
2018-03-29T23:46:39.419Z,6.87
2018-03-29T23:49:06.844Z,7.35
2018-03-29T23:51:34.419Z,6.90
2018-03-29T23:54:01.851Z,6.78
2018-03-29T23:56:29.327Z,7.15
2018-03-29T23:58:56.787Z,6.82
